KOAJ/OAJ METAR and TAF weather

Enter ICAO airport designator
Station Type Date Time Source
KOAJ METAR 2018/12/17 15:56 UTC NOAA

KOAJ 171556Z 26007KT 240V300 10SM CLR 14/07 A3003 RMK AO2 SLP175 T01440067


Station Type Date Time Source
KOAJ Decoded METAR 2018/12/17 15:56 UTC NOAA

Jacksonville, Albert J Ellis Airport, NC, United States (KOAJ) 34-50N 077-37W
Dec 17, 2018 - 10:56 AM EST / 2018.12.17 1556 UTC
Wind: from the W (260 degrees) at 8 MPH (7 KT) (direction variable):0
Visibility: 10 mile(s):0
Sky conditions: clear
Temperature: 57.9 F (14.4 C)
Dew Point: 44.1 F (6.7 C)
Relative Humidity: 59%
Pressure (altimeter): 30.03 in. Hg (1016 hPa)
ob: KOAJ 171556Z 26007KT 240V300 10SM CLR 14/07 A3003 RMK AO2 SLP175 T01440067
cycle: 16

Station Type Date Time Source
KOAJ TAF 2018/12/17 12:42 UTC NOAA

TAF KOAJ 171139Z 1712/1812 VRB03KT P6SM SKC
FM171400 29008G15KT P6SM SKC
FM172200 29004KT P6SM SKC
FM180600 33006KT P6SM SKC
AMD LTD TO CLD VIS AND WIND


Example: see airport list